Time;durP1;ratioP1;P1;durP2;ratioP2;P2;SDS_P1;SDS_P2;PMS_P1;PMS_P2;Temp;Humidity;BMP_temperature;BMP_pressure;BME280_temperature;BME280_humidity;BME280_pressure;Samples;Min_cycle;Max_cycle;Signal;HPM_P1;HPM_P2
2022/12/14 00:00:03;;;;;;;48.40;24.52;;;;;;;;;;5095467;28;20047;-65
2022/12/14 00:02:29;;;;;;;47.33;23.33;;;;;;;;;;5094598;28;20036;-65
2022/12/14 00:04:55;;;;;;;45.33;23.13;;;;;;;;;;5095621;28;21655;-65
2022/12/14 00:07:21;;;;;;;44.28;23.08;;;;;;;;;;5096601;28;20035;-65
2022/12/14 00:09:47;;;;;;;43.50;23.75;;;;;;;;;;5095413;28;20052;-65
2022/12/14 00:12:14;;;;;;;45.75;23.80;;;;;;;;;;5095624;28;20057;-65
2022/12/14 00:14:40;;;;;;;42.13;22.02;;;;;;;;;;5099052;28;20055;-65
2022/12/14 00:17:06;;;;;;;43.28;22.60;;;;;;;;;;5088136;28;20433;-65
2022/12/14 00:19:33;;;;;;;41.03;22.77;;;;;;;;;;5100076;28;21243;-65
2022/12/14 00:21:59;;;;;;;44.00;23.40;;;;;;;;;;5094354;28;20039;-65
2022/12/14 00:24:25;;;;;;;49.75;24.35;;;;;;;;;;5098461;28;20127;-64
2022/12/14 00:26:51;;;;;;;43.95;22.95;;;;;;;;;;5098674;28;20121;-64
2022/12/14 00:29:18;;;;;;;45.30;22.75;;;;;;;;;;5077005;28;20044;-64
2022/12/14 00:31:44;;;;;;;40.30;22.45;;;;;;;;;;5100437;28;20322;-64
2022/12/14 00:34:10;;;;;;;42.03;21.30;;;;;;;;;;5096291;28;20083;-64
2022/12/14 00:36:36;;;;;;;44.03;22.20;;;;;;;;;;5096618;28;20048;-64
2022/12/14 00:39:03;;;;;;;47.83;23.38;;;;;;;;;;5097253;28;20052;-64
2022/12/14 00:41:29;;;;;;;44.65;22.20;;;;;;;;;;5079224;28;20176;-64
2022/12/14 00:43:55;;;;;;;41.33;23.20;;;;;;;;;;5097999;28;20143;-65
2022/12/14 00:46:21;;;;;;;42.60;23.58;;;;;;;;;;5096148;28;20043;-64
2022/12/14 00:48:47;;;;;;;51.28;24.83;;;;;;;;;;5095531;28;20050;-64
2022/12/14 00:51:14;;;;;;;51.33;25.35;;;;;;;;;;5094666;28;20267;-64
2022/12/14 00:53:40;;;;;;;49.40;25.58;;;;;;;;;;5080924;28;20048;-64
2022/12/14 00:56:07;;;;;;;44.83;23.77;;;;;;;;;;5097900;28;20489;-64
2022/12/14 00:58:34;;;;;;;45.38;24.33;;;;;;;;;;5083016;28;20053;-64
2022/12/14 01:01:01;;;;;;;46.50;23.45;;;;;;;;;;5097297;28;20054;-64
2022/12/14 01:03:27;;;;;;;43.65;23.58;;;;;;;;;;5097180;28;20502;-64
2022/12/14 01:05:54;;;;;;;53.38;26.92;;;;;;;;;;5098146;28;20165;-64
2022/12/14 01:08:20;;;;;;;41.63;22.58;;;;;;;;;;5096723;28;20121;-64
2022/12/14 01:10:46;;;;;;;43.67;23.65;;;;;;;;;;5099192;28;20483;-64
2022/12/14 01:13:12;;;;;;;44.42;24.42;;;;;;;;;;5078051;28;20442;-64
2022/12/14 01:15:39;;;;;;;45.50;23.83;;;;;;;;;;5097323;28;20058;-64
2022/12/14 01:18:05;;;;;;;49.50;23.35;;;;;;;;;;5098173;28;20089;-64
2022/12/14 01:20:31;;;;;;;45.40;23.02;;;;;;;;;;5096847;28;20043;-64
2022/12/14 01:22:57;;;;;;;44.55;23.45;;;;;;;;;;5097386;28;20051;-64
2022/12/14 01:25:23;;;;;;;44.72;23.55;;;;;;;;;;5099427;28;20048;-64
2022/12/14 01:27:50;;;;;;;46.20;23.88;;;;;;;;;;5095886;28;20471;-64
2022/12/14 01:30:18;;;;;;;50.10;23.70;;;;;;;;;;5078821;28;20452;-64
2022/12/14 01:32:44;;;;;;;44.90;24.15;;;;;;;;;;5094189;28;20052;-64
2022/12/14 01:35:10;;;;;;;50.00;22.80;;;;;;;;;;5097830;28;20053;-64
2022/12/14 01:37:36;;;;;;;46.78;23.20;;;;;;;;;;5093029;28;20056;-64
2022/12/14 01:40:03;;;;;;;53.28;26.02;;;;;;;;;;5099181;28;20048;-64
2022/12/14 01:42:29;;;;;;;51.55;25.67;;;;;;;;;;5094843;28;20507;-64
2022/12/14 01:44:56;;;;;;;59.45;24.05;;;;;;;;;;5097890;28;20086;-64
2022/12/14 01:47:27;;;;;;;50.42;25.45;;;;;;;;;;5101616;28;20043;-64
2022/12/14 01:49:57;;;;;;;49.67;25.67;;;;;;;;;;5099713;28;20051;-64
2022/12/14 01:52:24;;;;;;;50.60;25.17;;;;;;;;;;5096167;28;20483;-64
2022/12/14 01:54:56;;;;;;;49.90;24.20;;;;;;;;;;5098845;28;20172;-63
2022/12/14 01:57:24;;;;;;;45.35;23.05;;;;;;;;;;5097041;28;20040;-64
2022/12/14 01:59:50;;;;;;;44.13;21.92;;;;;;;;;;5097588;28;20082;-63
2022/12/14 02:02:16;;;;;;;47.10;23.35;;;;;;;;;;5094778;28;20032;-64
2022/12/14 02:04:48;;;;;;;44.47;22.65;;;;;;;;;;5093410;28;20043;-63
2022/12/14 02:07:15;;;;;;;43.08;23.60;;;;;;;;;;5095066;28;20169;-63
2022/12/14 02:09:42;;;;;;;45.58;22.33;;;;;;;;;;5098178;28;20509;-63
2022/12/14 02:12:12;;;;;;;46.90;22.80;;;;;;;;;;5094023;28;20433;-63
2022/12/14 02:14:38;;;;;;;40.90;21.60;;;;;;;;;;5097881;28;20066;-63
2022/12/14 02:17:06;;;;;;;40.22;22.17;;;;;;;;;;5095959;28;20047;-63
2022/12/14 02:19:33;;;;;;;42.53;21.52;;;;;;;;;;5094606;28;20032;-63
2022/12/14 02:22:09;;;;;;;42.97;21.92;;;;;;;;;;5097284;28;20048;-63
2022/12/14 02:24:42;;;;;;;43.30;21.00;;;;;;;;;;5098392;28;20051;-63
2022/12/14 02:27:09;;;;;;;40.55;21.42;;;;;;;;;;5093818;28;20031;-63
2022/12/14 02:29:42;;;;;;;41.10;20.67;;;;;;;;;;5074881;28;20118;-64
2022/12/14 02:32:11;;;;;;;44.20;20.92;;;;;;;;;;5092241;28;20031;-63
2022/12/14 02:34:44;;;;;;;40.05;20.83;;;;;;;;;;5093576;28;20177;-63
2022/12/14 02:37:16;;;;;;;49.42;24.13;;;;;;;;;;5096848;28;20052;-63
2022/12/14 02:39:54;;;;;;;45.50;22.65;;;;;;;;;;5091535;28;20396;-63
2022/12/14 02:42:26;;;;;;;44.30;23.10;;;;;;;;;;5092421;28;20054;-63
2022/12/14 02:45:00;;;;;;;43.55;22.52;;;;;;;;;;5078230;28;20047;-63
2022/12/14 02:47:33;;;;;;;40.88;21.13;;;;;;;;;;5091840;28;20048;-63
2022/12/14 02:50:01;;;;;;;47.60;22.75;;;;;;;;;;5094591;28;20138;-63
2022/12/14 02:52:38;;;;;;;45.97;25.85;;;;;;;;;;5086572;28;20109;-63
2022/12/14 02:55:05;;;;;;;43.88;22.45;;;;;;;;;;5081227;28;20351;-63
2022/12/14 02:57:35;;;;;;;40.75;21.65;;;;;;;;;;5099655;28;20123;-63
2022/12/14 03:00:03;;;;;;;40.70;21.38;;;;;;;;;;5078952;28;20475;-63
2022/12/14 03:02:30;;;;;;;42.85;21.33;;;;;;;;;;5095973;28;20152;-63
2022/12/14 03:04:56;;;;;;;38.00;19.67;;;;;;;;;;5096087;28;20395;-62
2022/12/14 03:07:31;;;;;;;37.90;20.20;;;;;;;;;;5097191;28;20427;-63
2022/12/14 03:10:01;;;;;;;38.30;21.20;;;;;;;;;;5098963;28;20047;-62
2022/12/14 03:12:27;;;;;;;39.85;21.15;;;;;;;;;;5096716;28;20051;-62
2022/12/14 03:14:54;;;;;;;36.33;19.48;;;;;;;;;;5096131;28;20047;-62
2022/12/14 03:17:24;;;;;;;38.78;19.25;;;;;;;;;;5099773;28;20129;-62
2022/12/14 03:19:52;;;;;;;36.13;18.70;;;;;;;;;;5098588;28;20049;-62
2022/12/14 03:22:23;;;;;;;39.17;20.67;;;;;;;;;;5091309;28;20072;-62
2022/12/14 03:24:50;;;;;;;34.95;18.92;;;;;;;;;;5096704;28;20073;-63
2022/12/14 03:27:19;;;;;;;34.38;18.20;;;;;;;;;;5094983;28;20039;-62
2022/12/14 03:29:49;;;;;;;39.22;19.45;;;;;;;;;;5095540;28;20044;-63
2022/12/14 03:32:17;;;;;;;36.83;18.83;;;;;;;;;;5095430;28;20036;-63
2022/12/14 03:34:52;;;;;;;38.50;19.65;;;;;;;;;;5096354;28;20082;-62
2022/12/14 03:37:24;;;;;;;40.60;19.50;;;;;;;;;;5075199;28;20075;-62
2022/12/14 03:39:50;;;;;;;40.55;20.85;;;;;;;;;;5079662;28;20089;-62
2022/12/14 03:42:20;;;;;;;37.92;20.23;;;;;;;;;;5100186;28;20048;-63
2022/12/14 03:44:50;;;;;;;37.97;18.95;;;;;;;;;;5082005;28;20070;-62
2022/12/14 03:47:30;;;;;;;35.35;18.38;;;;;;;;;;5102825;28;20051;-62
2022/12/14 03:49:59;;;;;;;36.40;19.80;;;;;;;;;;5100392;28;20583;-63
2022/12/14 03:52:36;;;;;;;38.97;19.90;;;;;;;;;;5100091;28;20387;-63
2022/12/14 03:55:16;;;;;;;34.92;18.05;;;;;;;;;;5099624;28;20716;-63
2022/12/14 03:57:49;;;;;;;42.28;21.48;;;;;;;;;;5096569;28;20040;-63
2022/12/14 04:00:18;;;;;;;41.17;20.08;;;;;;;;;;5078537;28;20051;-63
2022/12/14 04:03:16;;;;;;;42.05;21.05;;;;;;;;;;5098857;28;21466;-63
2022/12/14 04:05:45;;;;;;;36.47;19.05;;;;;;;;;;5082196;28;20439;-63
2022/12/14 04:08:22;;;;;;;36.03;19.27;;;;;;;;;;5099199;28;20054;-63
2022/12/14 04:19:18;;;;;;;41.53;21.38;;;;;;;;;;5081147;28;20118;-62
2022/12/14 04:21:51;;;;;;;50.20;23.70;;;;;;;;;;5101947;28;20403;-63
2022/12/14 04:27:18;;;;;;;42.17;20.52;;;;;;;;;;5098684;28;20079;-63
2022/12/14 04:29:55;;;;;;;48.83;22.60;;;;;;;;;;5078608;28;20051;-63
2022/12/14 04:32:26;;;;;;;44.65;23.42;;;;;;;;;;5095477;28;20035;-63
2022/12/14 04:34:56;;;;;;;47.15;23.23;;;;;;;;;;5092163;27;20071;-63
2022/12/14 04:37:24;;;;;;;44.03;22.38;;;;;;;;;;5089932;28;20074;-63
2022/12/14 04:39:53;;;;;;;41.40;20.33;;;;;;;;;;5098590;28;20040;-62
2022/12/14 04:42:22;;;;;;;41.47;19.95;;;;;;;;;;5098338;28;20059;-63
2022/12/14 04:44:51;;;;;;;41.17;20.70;;;;;;;;;;5078104;28;20092;-63
2022/12/14 04:47:19;;;;;;;45.00;21.90;;;;;;;;;;5097087;28;20147;-63
2022/12/14 04:49:54;;;;;;;41.72;22.33;;;;;;;;;;5099121;28;20048;-63
2022/12/14 04:52:28;;;;;;;36.38;18.45;;;;;;;;;;5075872;28;20048;-63
2022/12/14 04:55:08;;;;;;;34.38;18.10;;;;;;;;;;5095703;28;20044;-63
2022/12/14 04:57:35;;;;;;;37.45;20.88;;;;;;;;;;5063486;28;20047;-63
2022/12/14 05:00:02;;;;;;;42.47;20.02;;;;;;;;;;5096810;28;20125;-63
2022/12/14 05:02:46;;;;;;;39.40;19.60;;;;;;;;;;5096716;28;20039;-63
2022/12/14 05:05:23;;;;;;;41.10;20.52;;;;;;;;;;5097568;28;20527;-63
2022/12/14 05:08:02;;;;;;;39.05;20.67;;;;;;;;;;5096170;28;20059;-63
2022/12/14 05:10:32;;;;;;;39.55;19.08;;;;;;;;;;5097888;28;20086;-63
2022/12/14 05:13:01;;;;;;;38.70;20.00;;;;;;;;;;5096315;28;20047;-63
2022/12/14 05:15:34;;;;;;;42.38;22.85;;;;;;;;;;5100033;28;20048;-63
2022/12/14 05:18:04;;;;;;;42.97;20.05;;;;;;;;;;5076886;28;20058;-63
2022/12/14 05:20:30;;;;;;;43.67;22.05;;;;;;;;;;5100048;28;20040;-63
2022/12/14 05:22:56;;;;;;;49.58;21.73;;;;;;;;;;5081279;28;20437;-64
2022/12/14 05:25:22;;;;;;;38.47;20.63;;;;;;;;;;5098588;28;20396;-63
2022/12/14 05:27:48;;;;;;;36.15;18.83;;;;;;;;;;5081315;28;20148;-63
2022/12/14 05:30:15;;;;;;;42.95;20.73;;;;;;;;;;5096695;28;20070;-64
2022/12/14 05:32:41;;;;;;;37.92;19.70;;;;;;;;;;5095178;28;20067;-63
2022/12/14 05:35:09;;;;;;;35.25;17.58;;;;;;;;;;5097895;28;20059;-63
2022/12/14 05:37:35;;;;;;;40.47;19.45;;;;;;;;;;5096486;28;20047;-63
2022/12/14 05:40:01;;;;;;;42.42;19.88;;;;;;;;;;5103265;28;20076;-63
2022/12/14 05:42:27;;;;;;;39.33;20.60;;;;;;;;;;5095446;28;20066;-64
2022/12/14 05:44:54;;;;;;;41.47;21.80;;;;;;;;;;5071433;28;20081;-64
2022/12/14 05:47:20;;;;;;;47.20;21.85;;;;;;;;;;5096253;28;20092;-64
2022/12/14 05:49:46;;;;;;;47.00;21.23;;;;;;;;;;5095408;28;20103;-64
2022/12/14 05:52:12;;;;;;;38.42;20.80;;;;;;;;;;5091409;28;20170;-64
2022/12/14 05:54:38;;;;;;;42.10;20.27;;;;;;;;;;5079795;28;20066;-63
2022/12/14 05:57:05;;;;;;;43.38;20.15;;;;;;;;;;5079219;28;20306;-63
2022/12/14 05:59:32;;;;;;;47.03;20.90;;;;;;;;;;5098744;28;20154;-63
2022/12/14 06:01:58;;;;;;;35.85;18.38;;;;;;;;;;5094514;28;20036;-63
2022/12/14 06:04:25;;;;;;;42.90;21.13;;;;;;;;;;5093664;28;20048;-63
2022/12/14 06:06:51;;;;;;;38.58;20.65;;;;;;;;;;5091852;28;20096;-63
2022/12/14 06:09:17;;;;;;;40.53;19.63;;;;;;;;;;5093263;28;20059;-63
2022/12/14 06:11:44;;;;;;;40.78;20.58;;;;;;;;;;5088357;27;20040;-63
2022/12/14 06:14:11;;;;;;;38.35;19.85;;;;;;;;;;5102032;28;20043;-63
2022/12/14 06:16:40;;;;;;;41.42;20.20;;;;;;;;;;5099997;28;20039;-64
2022/12/14 06:19:06;;;;;;;42.05;19.80;;;;;;;;;;5079085;28;20044;-64
2022/12/14 06:21:34;;;;;;;41.92;21.85;;;;;;;;;;5079606;28;20039;-64
2022/12/14 06:24:01;;;;;;;42.03;20.80;;;;;;;;;;5077436;28;20050;-64
2022/12/14 06:26:28;;;;;;;40.10;19.70;;;;;;;;;;5082270;28;20055;-63
2022/12/14 06:28:54;;;;;;;41.70;19.48;;;;;;;;;;5079120;28;20120;-63
2022/12/14 06:31:22;;;;;;;38.80;19.60;;;;;;;;;;5080658;28;21169;-64
2022/12/14 06:33:48;;;;;;;37.97;20.02;;;;;;;;;;5059909;28;20090;-64
2022/12/14 06:36:16;;;;;;;45.60;25.10;;;;;;;;;;5079609;28;20677;-63
2022/12/14 06:38:43;;;;;;;39.35;20.25;;;;;;;;;;5079332;28;20126;-64
2022/12/14 06:41:09;;;;;;;47.60;21.75;;;;;;;;;;5081113;28;20413;-64
2022/12/14 06:43:35;;;;;;;41.92;21.23;;;;;;;;;;5099769;28;20047;-63
2022/12/14 06:46:05;;;;;;;40.85;19.42;;;;;;;;;;5102959;28;20038;-63
2022/12/14 06:48:32;;;;;;;38.83;20.50;;;;;;;;;;5085649;28;20040;-63
2022/12/14 06:51:00;;;;;;;39.05;20.23;;;;;;;;;;5109074;28;20056;-63
2022/12/14 06:53:26;;;;;;;39.08;19.48;;;;;;;;;;5107706;28;20034;-63
2022/12/14 06:55:52;;;;;;;40.08;20.88;;;;;;;;;;5091258;28;20092;-63
2022/12/14 06:58:18;;;;;;;42.60;20.23;;;;;;;;;;5090239;28;20044;-63
2022/12/14 07:00:44;;;;;;;44.30;20.75;;;;;;;;;;5102336;28;20052;-63
2022/12/14 07:03:11;;;;;;;41.17;22.27;;;;;;;;;;5081288;28;20051;-63
2022/12/14 07:05:37;;;;;;;45.13;21.50;;;;;;;;;;5084084;28;20078;-63
2022/12/14 07:08:03;;;;;;;45.50;21.25;;;;;;;;;;5079956;28;20462;-63
2022/12/14 07:10:29;;;;;;;41.70;20.65;;;;;;;;;;5094288;28;20138;-63
2022/12/14 07:12:56;;;;;;;44.53;21.55;;;;;;;;;;5079883;28;20039;-64
2022/12/14 07:15:22;;;;;;;39.50;19.40;;;;;;;;;;5103585;28;20456;-64
2022/12/14 07:17:48;;;;;;;44.70;21.38;;;;;;;;;;5105681;28;20535;-64
2022/12/14 07:20:14;;;;;;;43.50;21.77;;;;;;;;;;5082912;28;20055;-64
2022/12/14 07:22:40;;;;;;;43.70;20.13;;;;;;;;;;5104496;28;20048;-65
2022/12/14 07:25:07;;;;;;;43.90;22.30;;;;;;;;;;5087513;28;20067;-63
2022/12/14 07:27:33;;;;;;;41.70;20.15;;;;;;;;;;5087422;28;20443;-63
2022/12/14 07:29:59;;;;;;;42.63;21.23;;;;;;;;;;5085778;28;20483;-63
2022/12/14 07:32:26;;;;;;;42.15;21.65;;;;;;;;;;5100927;28;20420;-63
2022/12/14 07:34:52;;;;;;;42.45;20.15;;;;;;;;;;5102421;28;20047;-63
2022/12/14 07:37:19;;;;;;;41.30;22.05;;;;;;;;;;5103726;28;20046;-65
2022/12/14 07:39:45;;;;;;;44.58;21.73;;;;;;;;;;5085409;28;20047;-63
2022/12/14 07:42:11;;;;;;;41.95;22.40;;;;;;;;;;5100895;28;20158;-63
2022/12/14 07:44:37;;;;;;;41.45;20.90;;;;;;;;;;5101138;28;20108;-63
2022/12/14 07:47:04;;;;;;;47.05;21.88;;;;;;;;;;5097361;28;20040;-63
2022/12/14 07:49:30;;;;;;;46.33;21.90;;;;;;;;;;5099116;28;20035;-63
2022/12/14 07:51:56;;;;;;;46.97;23.45;;;;;;;;;;5079876;28;20036;-63
2022/12/14 07:54:23;;;;;;;44.35;21.40;;;;;;;;;;5085849;28;20052;-63
2022/12/14 07:56:50;;;;;;;42.72;21.67;;;;;;;;;;5099614;28;20131;-63
2022/12/14 07:59:16;;;;;;;46.80;22.67;;;;;;;;;;5099909;28;20619;-63
2022/12/14 08:01:42;;;;;;;47.17;23.20;;;;;;;;;;5083535;28;20040;-63
2022/12/14 08:04:10;;;;;;;46.33;22.50;;;;;;;;;;5101963;28;20118;-63
2022/12/14 08:06:37;;;;;;;41.40;20.38;;;;;;;;;;5083773;28;20402;-63
2022/12/14 08:09:04;;;;;;;52.15;21.98;;;;;;;;;;5102768;28;20122;-63
2022/12/14 08:11:30;;;;;;;45.10;21.73;;;;;;;;;;5102650;28;20039;-63
2022/12/14 08:13:57;;;;;;;47.80;21.45;;;;;;;;;;5101865;28;20055;-63
2022/12/14 08:16:24;;;;;;;42.28;21.08;;;;;;;;;;5099802;28;20032;-63
2022/12/14 08:18:51;;;;;;;48.42;22.27;;;;;;;;;;5102069;28;20081;-63
2022/12/14 08:21:20;;;;;;;46.45;23.10;;;;;;;;;;5102929;28;20479;-63
2022/12/14 08:23:46;;;;;;;43.42;20.90;;;;;;;;;;5102737;28;20424;-64
2022/12/14 08:26:12;;;;;;;46.05;22.17;;;;;;;;;;5106297;28;20051;-63
2022/12/14 08:28:39;;;;;;;44.38;21.63;;;;;;;;;;5072393;28;20053;-64
2022/12/14 08:31:06;;;;;;;45.80;21.42;;;;;;;;;;5105137;28;20115;-63
2022/12/14 08:33:34;;;;;;;44.53;21.75;;;;;;;;;;5102124;28;20038;-63
2022/12/14 08:36:05;;;;;;;51.05;22.52;;;;;;;;;;5069174;28;20069;-64
2022/12/14 08:38:31;;;;;;;49.67;22.15;;;;;;;;;;5086866;28;20069;-64
2022/12/14 08:41:01;;;;;;;44.53;22.98;;;;;;;;;;5106493;28;20064;-64
2022/12/14 08:43:27;;;;;;;46.10;22.02;;;;;;;;;;5103040;28;20048;-64
2022/12/14 08:45:54;;;;;;;43.35;21.98;;;;;;;;;;5099555;28;20400;-64
2022/12/14 08:48:20;;;;;;;45.50;22.60;;;;;;;;;;5083058;28;20450;-64
2022/12/14 08:50:46;;;;;;;43.40;22.70;;;;;;;;;;5101026;28;20035;-64
2022/12/14 08:53:13;;;;;;;49.50;24.00;;;;;;;;;;5103552;28;20036;-64
2022/12/14 08:55:39;;;;;;;39.92;21.58;;;;;;;;;;5106228;28;20100;-63
2022/12/14 08:58:05;;;;;;;44.58;21.63;;;;;;;;;;5106004;28;20047;-63
2022/12/14 09:00:31;;;;;;;51.50;23.77;;;;;;;;;;5105215;28;20050;-63
2022/12/14 09:02:57;;;;;;;47.15;24.00;;;;;;;;;;5103907;28;20438;-63
2022/12/14 09:05:24;;;;;;;51.65;23.30;;;;;;;;;;5104006;28;20071;-63
2022/12/14 09:07:50;;;;;;;45.58;23.25;;;;;;;;;;5085728;28;20051;-63
2022/12/14 09:10:16;;;;;;;47.75;23.00;;;;;;;;;;5102178;28;20100;-63
2022/12/14 09:12:42;;;;;;;48.78;25.20;;;;;;;;;;5105505;28;20043;-64
2022/12/14 09:15:09;;;;;;;50.47;25.90;;;;;;;;;;5086303;28;20118;-63
2022/12/14 09:17:35;;;;;;;52.47;23.63;;;;;;;;;;5087675;28;20048;-63
2022/12/14 09:20:01;;;;;;;50.90;26.58;;;;;;;;;;5101063;28;20077;-63
2022/12/14 09:22:27;;;;;;;52.97;25.92;;;;;;;;;;5105073;28;20420;-61
2022/12/14 09:24:54;;;;;;;48.53;24.38;;;;;;;;;;5102243;28;20121;-62
2022/12/14 09:27:21;;;;;;;48.28;25.27;;;;;;;;;;5102786;28;20093;-62
2022/12/14 09:29:47;;;;;;;55.08;25.77;;;;;;;;;;5104208;28;20043;-62
2022/12/14 09:32:13;;;;;;;47.47;24.42;;;;;;;;;;5105635;28;20078;-62
2022/12/14 09:34:39;;;;;;;49.55;25.08;;;;;;;;;;5105187;28;20048;-62
2022/12/14 09:37:06;;;;;;;48.08;25.33;;;;;;;;;;5086401;28;20097;-62
2022/12/14 09:39:32;;;;;;;52.67;25.63;;;;;;;;;;5104876;28;20486;-62
2022/12/14 09:42:03;;;;;;;53.00;25.65;;;;;;;;;;5106245;28;20142;-62
2022/12/14 09:44:35;;;;;;;45.33;23.92;;;;;;;;;;5106777;28;20418;-62
2022/12/14 09:47:04;;;;;;;53.45;25.88;;;;;;;;;;5105538;28;20043;-62
2022/12/14 09:49:31;;;;;;;48.60;23.30;;;;;;;;;;5086172;28;20039;-61
2022/12/14 09:52:01;;;;;;;52.90;23.38;;;;;;;;;;5103608;28;20035;-62
2022/12/14 09:54:32;;;;;;;46.78;22.95;;;;;;;;;;5106223;28;20050;-62
2022/12/14 09:57:00;;;;;;;55.45;25.42;;;;;;;;;;5106107;28;20051;-62
2022/12/14 09:59:28;;;;;;;47.80;24.08;;;;;;;;;;5102007;28;20043;-62
2022/12/14 10:02:05;;;;;;;50.55;25.42;;;;;;;;;;5106031;28;20174;-62
2022/12/14 10:04:42;;;;;;;47.00;22.35;;;;;;;;;;5102812;28;20049;-62
2022/12/14 10:07:13;;;;;;;46.13;23.58;;;;;;;;;;5088179;28;20063;-62
2022/12/14 10:09:50;;;;;;;45.10;23.60;;;;;;;;;;5104636;28;20483;-62
2022/12/14 10:12:23;;;;;;;53.03;24.42;;;;;;;;;;5105540;28;20040;-62
2022/12/14 10:14:58;;;;;;;41.97;22.17;;;;;;;;;;5105698;28;20467;-63
2022/12/14 10:17:42;;;;;;;54.85;23.33;;;;;;;;;;5103526;28;20372;-63
2022/12/14 10:20:18;;;;;;;43.78;21.52;;;;;;;;;;5086624;28;20036;-63
2022/12/14 10:22:46;;;;;;;44.55;21.60;;;;;;;;;;5100790;28;20046;-63
2022/12/14 10:25:15;;;;;;;44.38;21.58;;;;;;;;;;5101935;28;20035;-62
2022/12/14 10:27:45;;;;;;;41.85;20.02;;;;;;;;;;5090340;28;20048;-63
2022/12/14 10:30:14;;;;;;;35.55;19.38;;;;;;;;;;5090547;28;20456;-63
2022/12/14 10:32:45;;;;;;;41.70;19.95;;;;;;;;;;5099795;28;20039;-63
2022/12/14 10:35:14;;;;;;;36.50;19.50;;;;;;;;;;5085082;28;20047;-63
2022/12/14 10:37:43;;;;;;;40.63;19.08;;;;;;;;;;5104469;28;20073;-63
2022/12/14 10:40:09;;;;;;;39.13;20.17;;;;;;;;;;5105455;28;20404;-63
2022/12/14 10:42:52;;;;;;;42.45;21.25;;;;;;;;;;5102770;28;20535;-63
2022/12/14 10:45:28;;;;;;;35.33;19.48;;;;;;;;;;5098177;28;20057;-63
2022/12/14 10:48:03;;;;;;;35.47;19.08;;;;;;;;;;5102497;28;20458;-63
2022/12/14 10:50:31;;;;;;;39.33;19.20;;;;;;;;;;5102541;28;20039;-63
2022/12/14 10:52:57;;;;;;;36.28;18.15;;;;;;;;;;5099223;28;20463;-63
2022/12/14 10:55:28;;;;;;;37.58;18.23;;;;;;;;;;5102548;28;20089;-63
2022/12/14 10:57:54;;;;;;;33.47;16.80;;;;;;;;;;5083767;28;20126;-63
2022/12/14 11:00:20;;;;;;;35.00;17.23;;;;;;;;;;5103079;28;20452;-63
2022/12/14 11:02:48;;;;;;;32.60;17.20;;;;;;;;;;5085496;28;20043;-63
2022/12/14 11:05:33;;;;;;;33.88;17.30;;;;;;;;;;5104958;28;20043;-63
2022/12/14 11:07:59;;;;;;;30.48;16.13;;;;;;;;;;5080494;28;20175;-63
2022/12/14 11:10:27;;;;;;;30.90;15.85;;;;;;;;;;5105495;28;20066;-63
2022/12/14 11:12:53;;;;;;;32.45;16.52;;;;;;;;;;5084758;28;20112;-63
2022/12/14 11:15:25;;;;;;;35.75;17.65;;;;;;;;;;5101685;28;20043;-64
2022/12/14 11:17:59;;;;;;;33.85;17.20;;;;;;;;;;5103028;28;20046;-64
2022/12/14 11:20:26;;;;;;;32.65;16.73;;;;;;;;;;5099059;28;20377;-63
2022/12/14 11:22:54;;;;;;;27.33;15.07;;;;;;;;;;5086028;28;20120;-63
2022/12/14 11:25:30;;;;;;;33.67;16.85;;;;;;;;;;5104161;28;20058;-64
2022/12/14 11:27:57;;;;;;;29.67;17.13;;;;;;;;;;5097885;28;20616;-63
2022/12/14 11:30:24;;;;;;;32.58;16.10;;;;;;;;;;5086136;28;20052;-63
2022/12/14 11:32:51;;;;;;;30.60;16.35;;;;;;;;;;5104410;28;20108;-63
2022/12/14 11:35:18;;;;;;;32.85;16.30;;;;;;;;;;5084384;28;20044;-63
2022/12/14 11:37:44;;;;;;;29.20;15.43;;;;;;;;;;5087310;28;20122;-64
2022/12/14 11:40:18;;;;;;;32.28;17.00;;;;;;;;;;5086917;28;20538;-63
2022/12/14 11:42:48;;;;;;;27.27;15.18;;;;;;;;;;5086038;28;20055;-64
2022/12/14 11:45:33;;;;;;;27.35;15.35;;;;;;;;;;5087473;28;20043;-64
2022/12/14 11:48:10;;;;;;;28.27;15.35;;;;;;;;;;5102999;28;20067;-64
2022/12/14 11:50:37;;;;;;;24.48;13.32;;;;;;;;;;5082337;28;20054;-64
2022/12/14 11:53:05;;;;;;;26.60;14.23;;;;;;;;;;5102866;28;20043;-64
2022/12/14 11:55:32;;;;;;;24.92;13.63;;;;;;;;;;5083866;28;20111;-63
2022/12/14 11:57:59;;;;;;;23.95;13.43;;;;;;;;;;5100006;28;20122;-63
2022/12/14 12:00:28;;;;;;;23.50;13.02;;;;;;;;;;5085297;28;20403;-63
2022/12/14 12:03:02;;;;;;;25.30;13.65;;;;;;;;;;5103729;28;20044;-63
2022/12/14 12:05:31;;;;;;;26.13;13.95;;;;;;;;;;5103218;28;20399;-64
2022/12/14 12:07:58;;;;;;;26.40;12.57;;;;;;;;;;5106876;28;20039;-64
2022/12/14 12:10:26;;;;;;;25.83;13.35;;;;;;;;;;5084262;28;20545;-64
2022/12/14 12:12:54;;;;;;;28.83;14.13;;;;;;;;;;5106532;28;20344;-63
2022/12/14 12:15:22;;;;;;;26.70;14.05;;;;;;;;;;5107005;28;20063;-63
2022/12/14 12:17:52;;;;;;;25.30;13.90;;;;;;;;;;5103282;28;20042;-64
2022/12/14 12:20:22;;;;;;;25.30;14.05;;;;;;;;;;5083744;28;20051;-63
2022/12/14 12:22:50;;;;;;;26.20;12.93;;;;;;;;;;5084807;28;20506;-63
2022/12/14 12:25:18;;;;;;;27.23;14.95;;;;;;;;;;5104027;28;20032;-64
2022/12/14 12:27:46;;;;;;;24.83;13.25;;;;;;;;;;5106771;28;20043;-63
2022/12/14 12:30:18;;;;;;;25.00;13.40;;;;;;;;;;5088135;28;20079;-63
2022/12/14 12:32:47;;;;;;;23.25;13.10;;;;;;;;;;5107935;28;20371;-63
2022/12/14 12:35:16;;;;;;;25.25;13.23;;;;;;;;;;5107842;28;20408;-63
2022/12/14 12:37:44;;;;;;;26.48;13.55;;;;;;;;;;5086774;28;20048;-64
2022/12/14 12:40:10;;;;;;;23.58;12.65;;;;;;;;;;5107103;28;20043;-63
2022/12/14 12:42:43;;;;;;;26.10;13.70;;;;;;;;;;5110171;28;20062;-63
2022/12/14 12:45:15;;;;;;;23.98;13.32;;;;;;;;;;5109087;28;20487;-63
2022/12/14 12:47:44;;;;;;;30.23;14.65;;;;;;;;;;5107239;28;20043;-63
2022/12/14 12:50:14;;;;;;;25.25;14.00;;;;;;;;;;5083865;28;20390;-63
2022/12/14 12:52:53;;;;;;;25.58;13.18;;;;;;;;;;5103540;28;20032;-63
2022/12/14 12:55:21;;;;;;;26.70;13.02;;;;;;;;;;5111468;28;20138;-63
2022/12/14 12:57:49;;;;;;;21.55;13.52;;;;;;;;;;5103606;28;20462;-63
2022/12/14 13:00:17;;;;;;;24.17;12.35;;;;;;;;;;5106887;28;20067;-63
2022/12/14 13:02:47;;;;;;;25.33;12.68;;;;;;;;;;5109587;28;20122;-63
2022/12/14 13:05:15;;;;;;;22.73;12.73;;;;;;;;;;5106904;28;20391;-63
2022/12/14 13:07:41;;;;;;;22.40;11.80;;;;;;;;;;5105878;28;20031;-64
2022/12/14 13:10:17;;;;;;;24.05;13.20;;;;;;;;;;5106974;28;20135;-63
2022/12/14 13:12:51;;;;;;;24.02;12.65;;;;;;;;;;5103519;28;20384;-63
2022/12/14 13:15:23;;;;;;;22.20;12.65;;;;;;;;;;5089880;28;20987;-64
2022/12/14 13:17:53;;;;;;;28.35;13.48;;;;;;;;;;5107406;28;20039;-64
2022/12/14 13:20:28;;;;;;;25.02;13.80;;;;;;;;;;5106820;28;20116;-64
2022/12/14 13:22:54;;;;;;;25.10;13.73;;;;;;;;;;5107263;28;20048;-64
2022/12/14 13:25:20;;;;;;;21.23;12.27;;;;;;;;;;5106306;28;20040;-64
2022/12/14 13:27:47;;;;;;;29.15;13.10;;;;;;;;;;5086212;28;20108;-64
2022/12/14 13:30:19;;;;;;;20.77;11.80;;;;;;;;;;5099537;28;20066;-64
2022/12/14 13:32:51;;;;;;;18.75;10.45;;;;;;;;;;5101266;28;20089;-65
2022/12/14 13:35:28;;;;;;;18.20;10.07;;;;;;;;;;5102804;28;21475;-66
2022/12/14 13:37:59;;;;;;;14.52;9.65;;;;;;;;;;5109527;27;20040;-65
2022/12/14 13:40:25;;;;;;;16.92;9.98;;;;;;;;;;5106074;28;20861;-66
2022/12/14 13:42:52;;;;;;;16.45;9.60;;;;;;;;;;5100850;28;20133;-65
2022/12/14 13:45:20;;;;;;;19.52;11.85;;;;;;;;;;5103484;28;20119;-65
2022/12/14 13:47:50;;;;;;;17.80;10.60;;;;;;;;;;5099026;28;20054;-65
2022/12/14 13:50:25;;;;;;;15.25;9.98;;;;;;;;;;5099994;27;20397;-65
2022/12/14 13:52:55;;;;;;;18.35;9.98;;;;;;;;;;5078421;28;20558;-65
2022/12/14 13:55:25;;;;;;;19.13;10.88;;;;;;;;;;5095962;28;20074;-65
2022/12/14 13:57:52;;;;;;;20.02;11.52;;;;;;;;;;5097636;28;20047;-65
2022/12/14 14:00:39;;;;;;;20.20;10.60;;;;;;;;;;5082829;27;20039;-65
2022/12/14 14:03:05;;;;;;;19.80;10.68;;;;;;;;;;5100209;28;20309;-65
2022/12/14 14:05:37;;;;;;;20.98;11.10;;;;;;;;;;5101716;28;20050;-65
2022/12/14 14:08:23;;;;;;;19.70;10.93;;;;;;;;;;5080265;28;20051;-65
2022/12/14 14:10:49;;;;;;;19.75;11.27;;;;;;;;;;5078135;28;20150;-65
2022/12/14 14:13:28;;;;;;;21.60;10.90;;;;;;;;;;5097861;28;20040;-64
2022/12/14 14:15:56;;;;;;;21.73;10.98;;;;;;;;;;5100447;28;20062;-65
2022/12/14 14:18:25;;;;;;;21.00;11.35;;;;;;;;;;5104934;28;20054;-66
2022/12/14 14:20:52;;;;;;;23.33;11.88;;;;;;;;;;5106132;27;20048;-65
2022/12/14 14:23:20;;;;;;;20.23;10.88;;;;;;;;;;5104304;28;20394;-65
2022/12/14 14:26:09;;;;;;;20.90;11.30;;;;;;;;;;5104753;28;20499;-65
2022/12/14 14:28:36;;;;;;;19.30;10.30;;;;;;;;;;5076658;28;20048;-65
2022/12/14 14:31:03;;;;;;;19.98;12.05;;;;;;;;;;5101205;27;20054;-64
2022/12/14 14:33:41;;;;;;;18.42;10.77;;;;;;;;;;5100345;28;20065;-65
2022/12/14 14:36:09;;;;;;;19.70;10.23;;;;;;;;;;5104326;28;20039;-64